createdAt,value
2019-01-19T00:01:02.408Z,62.75
2019-01-19T00:03:46.540Z,62.98
2019-01-19T00:06:21.163Z,63.74
2019-01-19T00:08:50.510Z,63.35
2019-01-19T00:11:38.859Z,63.50
2019-01-19T00:14:10.561Z,63.51
2019-01-19T00:16:50.969Z,64.18
2019-01-19T00:19:46.662Z,63.45
2019-01-19T00:22:47.123Z,62.94
2019-01-19T00:25:19.005Z,63.56
2019-01-19T00:27:59.441Z,64.59
2019-01-19T00:30:31.125Z,63.53
2019-01-19T00:33:08.473Z,62.62
2019-01-19T00:35:58.163Z,63.43
2019-01-19T00:38:41.802Z,62.53
2019-01-19T00:41:42.125Z,61.89
2019-01-19T00:44:13.891Z,62.72
2019-01-19T00:46:48.614Z,62.14
2019-01-19T00:49:19.143Z,61.31
2019-01-19T00:52:10.354Z,60.99
2019-01-19T00:54:41.999Z,62.94
2019-01-19T00:57:22.823Z,62.91
2019-01-19T00:59:52.566Z,62.25
2019-01-19T01:02:32.952Z,63.51
2019-01-19T01:05:13.513Z,64.15
2019-01-19T01:08:06.370Z,62.60
2019-01-19T01:10:43.657Z,64.52
2019-01-19T01:13:24.327Z,65.16
2019-01-19T01:15:59.156Z,66.70
2019-01-19T01:18:39.158Z,66.73
2019-01-19T01:21:22.750Z,67.12
2019-01-19T01:24:00.689Z,65.95
2019-01-19T01:26:38.133Z,67.12
2019-01-19T01:29:24.701Z,69.15
2019-01-19T01:31:58.964Z,69.59
2019-01-19T01:34:55.087Z,71.14
2019-01-19T01:37:32.379Z,71.46
2019-01-19T01:40:12.836Z,71.68
2019-01-19T01:42:47.419Z,72.43
2019-01-19T01:45:21.924Z,73.90
2019-01-19T01:48:20.965Z,74.91
2019-01-19T01:51:01.764Z,75.30
2019-01-19T01:53:36.477Z,76.50
2019-01-19T01:56:07.715Z,75.04
2019-01-19T01:59:02.011Z,73.62
2019-01-19T02:01:39.354Z,72.38
2019-01-19T02:04:34.097Z,72.54
2019-01-19T02:07:08.689Z,72.34
2019-01-19T02:09:42.930Z,72.16
2019-01-19T02:12:26.812Z,71.96
2019-01-19T02:15:04.037Z,71.43
2019-01-19T02:17:38.891Z,72.42
2019-01-19T02:20:25.401Z,72.16
2019-01-19T02:23:12.057Z,74.85
2019-01-19T02:26:04.647Z,74.64
2019-01-19T02:28:36.817Z,74.95
2019-01-19T02:31:32.223Z,76.15
2019-01-19T02:34:12.378Z,76.16
2019-01-19T02:37:02.567Z,76.75
2019-01-19T02:39:43.234Z,76.48
2019-01-19T02:42:17.851Z,77.75
2019-01-19T02:44:49.824Z,79.08
2019-01-19T02:47:24.242Z,78.51
2019-01-19T02:50:14.162Z,79.23
2019-01-19T02:52:51.616Z,80.47
2019-01-19T02:55:40.474Z,81.22
2019-01-19T02:58:21.041Z,82.59
2019-01-19T03:01:13.955Z,82.19
2019-01-19T03:04:00.600Z,82.31
2019-01-19T03:06:48.948Z,84.97
2019-01-19T03:09:20.724Z,86.26
2019-01-19T03:11:55.641Z,86.94
2019-01-19T03:14:27.400Z,88.90
2019-01-19T03:17:21.107Z,89.25
2019-01-19T03:20:01.732Z,90.64
2019-01-19T03:22:39.639Z,91.53
2019-01-19T03:25:17.469Z,93.30
2019-01-19T03:28:13.566Z,92.22
2019-01-19T03:31:12.461Z,93.52
2019-01-19T03:33:47.390Z,94.79
2019-01-19T03:36:52.429Z,94.86
2019-01-19T03:39:30.143Z,95.76
2019-01-19T03:42:16.307Z,98.41
2019-01-19T03:44:48.204Z,100.00
2019-01-19T03:47:40.744Z,100.00
2019-01-19T03:50:15.354Z,100.00
2019-01-19T03:52:49.874Z,100.00
2019-01-19T03:55:55.216Z,100.00
2019-01-19T03:58:26.866Z,100.00
2019-01-19T04:01:01.128Z,100.00
2019-01-19T04:03:53.838Z,100.00
2019-01-19T04:06:28.575Z,100.00
2019-01-19T04:09:03.443Z,100.00
2019-01-19T04:12:05.780Z,100.00
2019-01-19T04:14:43.264Z,100.00
2019-01-19T04:17:40.728Z,100.00
2019-01-19T04:20:27.371Z,100.00
2019-01-19T04:22:57.455Z,100.00
2019-01-19T04:25:29.371Z,100.00
2019-01-19T04:27:59.737Z,100.00
2019-01-19T04:30:29.035Z,100.00
2019-01-19T04:32:57.840Z,100.00
2019-01-19T04:35:26.620Z,100.00
2019-01-19T04:37:55.499Z,100.00
2019-01-19T04:40:24.289Z,100.00
2019-01-19T04:42:53.388Z,100.00
2019-01-19T04:45:22.377Z,100.00
2019-01-19T04:47:51.119Z,100.00
2019-01-19T04:50:19.866Z,100.00
2019-01-19T04:52:49.049Z,100.00
2019-01-19T04:55:17.836Z,100.00
2019-01-19T04:57:46.571Z,100.00
2019-01-19T05:00:19.741Z,100.00
2019-01-19T05:02:48.605Z,100.00
2019-01-19T05:05:17.493Z,100.00
2019-01-19T05:07:46.715Z,100.00
2019-01-19T05:10:15.459Z,100.00
2019-01-19T05:12:44.369Z,100.00
2019-01-19T05:15:16.037Z,100.00
2019-01-19T05:17:45.224Z,100.00
2019-01-19T05:20:14.864Z,100.00
2019-01-19T05:22:43.924Z,100.00
2019-01-19T05:25:13.327Z,100.00
2019-01-19T05:27:42.115Z,100.00
2019-01-19T05:30:13.991Z,100.00
2019-01-19T05:32:42.766Z,100.00
2019-01-19T05:35:11.759Z,100.00
2019-01-19T05:37:40.541Z,100.00
2019-01-19T05:40:11.591Z,100.00
2019-01-19T05:42:40.419Z,100.00
2019-01-19T05:45:14.186Z,100.00
2019-01-19T05:47:42.976Z,100.00
2019-01-19T05:50:20.159Z,100.00
2019-01-19T05:52:48.894Z,100.00
2019-01-19T05:55:17.635Z,100.00
2019-01-19T05:57:46.517Z,100.00
2019-01-19T06:00:18.103Z,100.00
2019-01-19T06:02:46.960Z,100.00
2019-01-19T06:05:16.280Z,100.00
2019-01-19T06:07:45.056Z,100.00
2019-01-19T06:10:15.999Z,100.00
2019-01-19T06:12:44.883Z,100.00
2019-01-19T06:15:16.028Z,100.00
2019-01-19T06:17:44.811Z,100.00
2019-01-19T06:20:15.881Z,100.00
2019-01-19T06:22:44.740Z,100.00
2019-01-19T06:25:15.602Z,100.00
2019-01-19T06:27:44.877Z,100.00
2019-01-19T06:30:19.396Z,100.00
2019-01-19T06:32:48.343Z,100.00
2019-01-19T06:35:18.305Z,100.00
2019-01-19T06:37:47.411Z,100.00
2019-01-19T06:40:19.697Z,100.00
2019-01-19T06:42:48.563Z,100.00
2019-01-19T06:45:24.827Z,100.00
2019-01-19T06:47:53.818Z,100.00
2019-01-19T06:50:22.611Z,100.00
2019-01-19T06:52:51.356Z,100.00
2019-01-19T06:55:23.073Z,100.00
2019-01-19T06:57:51.814Z,100.00
2019-01-19T07:00:20.756Z,100.00
2019-01-19T07:02:49.904Z,100.00
2019-01-19T07:05:18.741Z,100.00
2019-01-19T07:07:47.530Z,100.00
2019-01-19T07:10:22.230Z,100.00
2019-01-19T07:12:51.044Z,100.00
2019-01-19T07:15:19.829Z,100.00
2019-01-19T07:17:48.715Z,100.00
2019-01-19T07:20:23.041Z,100.00
2019-01-19T07:22:51.829Z,100.00
2019-01-19T07:25:20.716Z,100.00
2019-01-19T07:27:49.504Z,100.00
2019-01-19T07:30:18.408Z,100.00
2019-01-19T07:32:48.007Z,100.00
2019-01-19T07:35:17.406Z,100.00
2019-01-19T07:37:46.191Z,100.00
2019-01-19T07:40:16.894Z,100.00
2019-01-19T07:42:46.835Z,100.00
2019-01-19T07:45:16.255Z,100.00
2019-01-19T07:47:46.171Z,100.00
2019-01-19T07:50:16.991Z,100.00
2019-01-19T07:52:46.235Z,100.00
2019-01-19T07:55:18.714Z,100.00
2019-01-19T07:57:47.562Z,100.00
2019-01-19T08:00:19.114Z,100.00
2019-01-19T08:02:48.007Z,100.00
2019-01-19T08:05:16.788Z,100.00
2019-01-19T08:07:45.684Z,100.00
2019-01-19T08:10:17.173Z,100.00
2019-01-19T08:12:46.315Z,100.00
2019-01-19T08:15:23.924Z,100.00
2019-01-19T08:17:52.717Z,100.00
2019-01-19T08:20:21.685Z,100.00
2019-01-19T08:22:50.594Z,100.00
2019-01-19T08:25:19.430Z,100.00
2019-01-19T08:27:49.706Z,100.00
2019-01-19T08:30:26.895Z,100.00
2019-01-19T08:32:55.785Z,100.00
2019-01-19T08:35:24.934Z,100.00
2019-01-19T08:37:53.912Z,100.00
2019-01-19T08:40:36.077Z,100.00
2019-01-19T08:43:06.600Z,100.00
2019-01-19T08:45:35.595Z,100.00
2019-01-19T08:48:04.735Z,100.00
2019-01-19T08:50:33.577Z,100.00
2019-01-19T08:53:02.372Z,100.00
2019-01-19T08:55:31.112Z,100.00
2019-01-19T08:58:00.075Z,100.00
2019-01-19T09:00:28.834Z,100.00
2019-01-19T09:02:57.621Z,100.00
2019-01-19T09:05:26.619Z,100.00
2019-01-19T09:07:55.409Z,100.00
2019-01-19T09:10:24.149Z,100.00
2019-01-19T09:12:54.537Z,100.00
2019-01-19T09:15:24.815Z,100.00
2019-01-19T09:17:53.635Z,100.00
2019-01-19T09:20:22.565Z,100.00
2019-01-19T09:22:52.950Z,100.00
2019-01-19T09:25:21.732Z,100.00
2019-01-19T09:27:50.642Z,100.00
2019-01-19T09:30:25.891Z,100.00
2019-01-19T09:32:55.388Z,100.00
2019-01-19T09:35:24.149Z,100.00
2019-01-19T09:37:52.944Z,100.00
2019-01-19T09:40:22.039Z,100.00
2019-01-19T09:42:50.787Z,100.00
2019-01-19T09:45:20.819Z,100.00
2019-01-19T09:47:49.612Z,100.00
2019-01-19T09:50:20.056Z,100.00
2019-01-19T09:52:48.851Z,100.00
2019-01-19T09:55:17.648Z,100.00
2019-01-19T09:57:46.631Z,100.00
2019-01-19T10:00:21.150Z,100.00
2019-01-19T10:02:50.961Z,100.00
2019-01-19T10:05:27.227Z,100.00
2019-01-19T10:07:56.458Z,100.00
2019-01-19T10:10:25.418Z,100.00
2019-01-19T10:12:54.205Z,100.00
2019-01-19T10:15:23.504Z,100.00
2019-01-19T10:17:52.293Z,100.00
2019-01-19T10:20:26.709Z,100.00
2019-01-19T10:22:55.615Z,100.00
2019-01-19T10:25:24.392Z,100.00
2019-01-19T10:27:53.238Z,100.00
2019-01-19T10:30:29.239Z,100.00
2019-01-19T10:32:58.085Z,100.00
2019-01-19T10:35:27.016Z,100.00
2019-01-19T10:37:56.879Z,100.00
2019-01-19T10:40:25.926Z,100.00
2019-01-19T10:42:54.933Z,100.00
2019-01-19T10:45:28.189Z,100.00
2019-01-19T10:47:57.019Z,100.00
2019-01-19T10:50:25.787Z,100.00
2019-01-19T10:52:54.679Z,100.00
2019-01-19T10:55:24.429Z,100.00
2019-01-19T10:57:53.489Z,100.00
2019-01-19T11:00:24.935Z,100.00
2019-01-19T11:02:54.077Z,100.00
2019-01-19T11:05:23.225Z,100.00
2019-01-19T11:07:52.318Z,100.00
2019-01-19T11:10:26.127Z,100.00
2019-01-19T11:12:54.917Z,100.00
2019-01-19T11:15:23.804Z,100.00
2019-01-19T11:17:52.801Z,100.00
2019-01-19T11:20:26.193Z,100.00
2019-01-19T11:22:55.700Z,100.00
2019-01-19T11:25:24.489Z,100.00
2019-01-19T11:27:53.277Z,100.00
2019-01-19T11:30:27.286Z,100.00
2019-01-19T11:32:56.082Z,100.00
2019-01-19T11:35:24.821Z,100.00
2019-01-19T11:37:53.652Z,100.00
2019-01-19T11:40:31.251Z,100.00
2019-01-19T11:43:00.240Z,100.00
2019-01-19T11:45:29.033Z,100.00
2019-01-19T11:47:57.826Z,100.00
2019-01-19T11:50:27.216Z,100.00
2019-01-19T11:52:55.962Z,100.00
2019-01-19T11:55:24.894Z,100.00
2019-01-19T11:57:56.369Z,100.00
2019-01-19T12:00:30.612Z,100.00
2019-01-19T12:02:59.452Z,100.00
2019-01-19T12:05:28.446Z,100.00
2019-01-19T12:07:57.233Z,100.00
2019-01-19T12:10:28.378Z,100.00
2019-01-19T12:12:57.749Z,100.00
2019-01-19T12:15:26.879Z,100.00
2019-01-19T12:17:55.970Z,100.00
2019-01-19T12:20:33.390Z,100.00
2019-01-19T12:23:02.146Z,100.00
2019-01-19T12:25:30.937Z,100.00
2019-01-19T12:27:59.829Z,100.00
2019-01-19T12:30:33.207Z,100.00
2019-01-19T12:33:02.011Z,100.00
2019-01-19T12:35:30.893Z,100.00
2019-01-19T12:38:00.647Z,100.00
2019-01-19T12:40:30.629Z,100.00
2019-01-19T12:43:02.172Z,100.00
2019-01-19T12:45:42.986Z,100.00
2019-01-19T12:48:11.981Z,100.00
2019-01-19T12:50:42.370Z,100.00
2019-01-19T12:53:11.157Z,100.00
2019-01-19T12:55:40.047Z,100.00
2019-01-19T12:58:09.793Z,100.00
2019-01-19T13:00:38.694Z,100.00
2019-01-19T13:03:08.920Z,100.00
2019-01-19T13:05:49.676Z,100.00
2019-01-19T13:08:21.497Z,100.00
2019-01-19T13:10:58.993Z,100.00
2019-01-19T13:13:28.185Z,100.00
2019-01-19T13:16:02.711Z,100.00
2019-01-19T13:18:51.362Z,100.00
2019-01-19T13:21:38.071Z,100.00
2019-01-19T13:24:15.409Z,100.00
2019-01-19T13:27:06.649Z,100.00
2019-01-19T13:29:47.557Z,100.00
2019-01-19T13:32:34.465Z,100.00
2019-01-19T13:35:25.723Z,100.00
2019-01-19T13:38:15.454Z,100.00
2019-01-19T13:40:58.988Z,100.00
2019-01-19T13:43:48.155Z,100.00
2019-01-19T13:46:44.285Z,100.00
2019-01-19T13:49:37.341Z,100.00
2019-01-19T13:52:09.246Z,100.00
2019-01-19T13:54:43.934Z,100.00
2019-01-19T13:57:28.383Z,100.00
2019-01-19T14:00:18.762Z,100.00
2019-01-19T14:03:13.745Z,100.00
2019-01-19T14:05:51.479Z,100.00
2019-01-19T14:08:59.884Z,100.00
2019-01-19T14:11:53.986Z,100.00
2019-01-19T14:14:47.955Z,100.00
2019-01-19T14:17:37.634Z,100.00
2019-01-19T14:20:24.326Z,100.00
2019-01-19T14:23:11.255Z,100.00
2019-01-19T14:26:00.115Z,100.00
2019-01-19T14:28:34.637Z,100.00
2019-01-19T14:31:29.244Z,100.00
2019-01-19T14:34:19.112Z,100.00
2019-01-19T14:36:56.709Z,100.00
2019-01-19T14:39:31.434Z,100.00
2019-01-19T14:42:19.355Z,100.00
2019-01-19T14:44:54.099Z,100.00
2019-01-19T14:47:31.387Z,100.00
2019-01-19T14:50:28.435Z,100.00
2019-01-19T14:53:16.788Z,100.00
2019-01-19T14:55:57.245Z,100.00
2019-01-19T14:58:31.560Z,100.00
2019-01-19T15:01:06.042Z,100.00
2019-01-19T15:03:43.783Z,100.00
2019-01-19T15:06:27.622Z,100.00
2019-01-19T15:09:17.717Z,100.00
2019-01-19T15:11:52.136Z,100.00
2019-01-19T15:14:26.860Z,100.00
2019-01-19T15:17:04.553Z,100.00
2019-01-19T15:19:58.943Z,100.00
2019-01-19T15:22:45.857Z,100.00
2019-01-19T15:25:42.173Z,100.00
2019-01-19T15:28:16.801Z,100.00
2019-01-19T15:30:48.574Z,100.00
2019-01-19T15:33:26.064Z,100.00
2019-01-19T15:36:06.752Z,100.00
2019-01-19T15:38:41.356Z,100.00
2019-01-19T15:41:28.039Z,100.00
2019-01-19T15:44:05.482Z,100.00
2019-01-19T15:46:56.873Z,100.00
2019-01-19T15:49:46.348Z,100.00
2019-01-19T15:52:33.468Z,100.00
2019-01-19T15:55:17.100Z,100.00
2019-01-19T15:57:58.178Z,100.00
2019-01-19T16:00:47.950Z,100.00
2019-01-19T16:03:25.144Z,100.00
2019-01-19T16:06:16.561Z,100.00
2019-01-19T16:08:57.276Z,100.00
2019-01-19T16:11:37.278Z,100.00
2019-01-19T16:14:18.047Z,100.00
2019-01-19T16:16:55.439Z,100.00
2019-01-19T16:19:59.354Z,100.00
2019-01-19T16:22:40.026Z,100.00
2019-01-19T16:25:20.888Z,100.00
2019-01-19T16:27:58.177Z,100.00
2019-01-19T16:30:41.815Z,100.00
2019-01-19T16:33:37.745Z,100.00
2019-01-19T16:36:12.271Z,100.00
2019-01-19T16:39:08.289Z,100.00
2019-01-19T16:41:52.131Z,100.00
2019-01-19T16:44:38.964Z,100.00
2019-01-19T16:47:20.221Z,100.00
2019-01-19T16:49:54.644Z,100.00
2019-01-19T16:52:35.445Z,100.00
2019-01-19T16:55:19.455Z,100.00
2019-01-19T16:57:51.624Z,100.00
2019-01-19T17:00:29.426Z,100.00
2019-01-19T17:03:07.118Z,100.00
2019-01-19T17:05:47.242Z,100.00
2019-01-19T17:08:35.863Z,100.00
2019-01-19T17:11:19.769Z,100.00
2019-01-19T17:14:06.683Z,100.00
2019-01-19T17:16:38.439Z,100.00
2019-01-19T17:19:10.194Z,100.00
2019-01-19T17:21:57.317Z,100.00
2019-01-19T17:24:52.419Z,100.00
2019-01-19T17:27:32.860Z,100.00
2019-01-19T17:30:13.755Z,100.00
2019-01-19T17:32:51.040Z,100.00
2019-01-19T17:35:34.884Z,100.00
2019-01-19T17:38:09.211Z,100.00
2019-01-19T17:41:06.966Z,100.00
2019-01-19T17:44:00.050Z,100.00
2019-01-19T17:46:35.064Z,100.00
2019-01-19T17:49:27.877Z,100.00
2019-01-19T17:52:31.719Z,100.00
2019-01-19T17:55:09.390Z,100.00
2019-01-19T17:57:41.175Z,100.00
2019-01-19T18:00:24.991Z,100.00
2019-01-19T18:03:02.590Z,100.00
2019-01-19T18:05:43.155Z,100.00
2019-01-19T18:08:23.468Z,100.00
2019-01-19T18:11:07.218Z,100.00
2019-01-19T18:14:07.710Z,100.00
2019-01-19T18:16:58.822Z,100.00
2019-01-19T18:19:33.153Z,100.00
2019-01-19T18:22:38.333Z,100.00
2019-01-19T18:25:35.884Z,100.00
2019-01-19T18:28:22.346Z,100.00
2019-01-19T18:31:02.801Z,100.00
2019-01-19T18:33:43.617Z,100.00
2019-01-19T18:36:21.351Z,100.00
2019-01-19T18:38:53.040Z,100.00
2019-01-19T18:41:31.505Z,100.00
2019-01-19T18:44:06.102Z,100.00
2019-01-19T18:46:41.533Z,100.00
2019-01-19T18:49:16.329Z,100.00
2019-01-19T18:51:51.177Z,100.00
2019-01-19T18:54:48.015Z,100.00
2019-01-19T18:57:31.754Z,100.00
2019-01-19T19:00:23.919Z,100.00
2019-01-19T19:02:58.616Z,100.00
2019-01-19T19:05:36.008Z,100.00
2019-01-19T19:08:16.572Z,100.00
2019-01-19T19:11:00.616Z,100.00
2019-01-19T19:13:35.129Z,100.00
2019-01-19T19:16:19.530Z,100.00
2019-01-19T19:19:09.472Z,100.00
2019-01-19T19:22:05.080Z,100.00
2019-01-19T19:24:51.581Z,100.00
2019-01-19T19:27:39.677Z,100.00
2019-01-19T19:30:23.297Z,100.00
2019-01-19T19:33:13.260Z,100.00
2019-01-19T19:36:07.547Z,100.00
2019-01-19T19:38:44.792Z,100.00
2019-01-19T19:41:16.694Z,100.00
2019-01-19T19:44:18.256Z,100.00
2019-01-19T19:46:52.788Z,100.00
2019-01-19T19:49:33.009Z,100.00
2019-01-19T19:52:02.661Z,100.00
2019-01-19T19:54:31.798Z,100.00
2019-01-19T19:57:01.139Z,100.00
2019-01-19T19:59:29.937Z,100.00
2019-01-19T20:01:58.714Z,100.00
2019-01-19T20:04:27.913Z,100.00
2019-01-19T20:06:57.593Z,100.00
2019-01-19T20:09:26.332Z,100.00
2019-01-19T20:11:56.737Z,100.00
2019-01-19T20:14:25.723Z,100.00
2019-01-19T20:16:54.470Z,100.00
2019-01-19T20:19:23.301Z,100.00
2019-01-19T20:21:52.093Z,100.00
2019-01-19T20:24:20.880Z,100.00
2019-01-19T20:26:49.663Z,100.00
2019-01-19T20:29:18.652Z,100.00
2019-01-19T20:31:47.397Z,100.00
2019-01-19T20:34:16.233Z,100.00
2019-01-19T20:36:45.534Z,100.00
2019-01-19T20:39:14.271Z,100.00
2019-01-19T20:41:43.208Z,100.00
2019-01-19T20:44:11.988Z,100.00
2019-01-19T20:46:40.788Z,100.00
2019-01-19T20:49:09.531Z,100.00
2019-01-19T20:51:38.466Z,100.00
2019-01-19T20:54:08.793Z,100.00
2019-01-19T20:56:38.993Z,100.00
2019-01-19T20:59:07.804Z,100.00
2019-01-19T21:01:36.542Z,100.00
2019-01-19T21:04:05.385Z,100.00
2019-01-19T21:06:34.679Z,100.00
2019-01-19T21:09:06.539Z,100.00
2019-01-19T21:11:35.327Z,100.00
2019-01-19T21:14:04.344Z,100.00
2019-01-19T21:16:33.111Z,100.00
2019-01-19T21:19:01.903Z,100.00
2019-01-19T21:21:30.794Z,100.00
2019-01-19T21:23:59.784Z,100.00
2019-01-19T21:26:28.570Z,100.00
2019-01-19T21:28:57.559Z,100.00
2019-01-19T21:31:26.348Z,100.00
2019-01-19T21:33:55.134Z,100.00
2019-01-19T21:36:23.934Z,100.00
2019-01-19T21:38:52.681Z,100.00
2019-01-19T21:41:21.426Z,100.00
2019-01-19T21:43:53.299Z,100.00
2019-01-19T21:46:23.598Z,100.00
2019-01-19T21:48:52.373Z,100.00
2019-01-19T21:51:21.366Z,100.00
2019-01-19T21:53:50.361Z,100.00
2019-01-19T21:56:19.146Z,100.00
2019-01-19T21:58:48.045Z,100.00
2019-01-19T22:01:16.824Z,100.00
2019-01-19T22:03:45.570Z,100.00
2019-01-19T22:06:14.399Z,100.00
2019-01-19T22:08:43.141Z,100.00
2019-01-19T22:11:13.410Z,100.00
2019-01-19T22:13:43.739Z,100.00
2019-01-19T22:16:12.524Z,100.00
2019-01-19T22:18:41.269Z,100.00
2019-01-19T22:21:10.225Z,100.00
2019-01-19T22:23:40.529Z,100.00
2019-01-19T22:26:10.834Z,100.00
2019-01-19T22:28:39.841Z,100.00
2019-01-19T22:31:08.631Z,100.00
2019-01-19T22:33:37.623Z,100.00
2019-01-19T22:36:07.497Z,100.00
2019-01-19T22:38:36.449Z,100.00
2019-01-19T22:41:05.294Z,100.00
2019-01-19T22:43:34.182Z,100.00
2019-01-19T22:46:02.935Z,100.00
2019-01-19T22:48:31.677Z,100.00
2019-01-19T22:51:00.482Z,100.00
2019-01-19T22:53:29.260Z,100.00
2019-01-19T22:55:59.838Z,100.00
2019-01-19T22:58:28.682Z,100.00
2019-01-19T23:01:16.927Z,100.00
2019-01-19T23:03:45.817Z,100.00
2019-01-19T23:06:14.607Z,100.00
2019-01-19T23:08:43.499Z,100.00
2019-01-19T23:11:12.383Z,100.00
2019-01-19T23:13:41.179Z,100.00
2019-01-19T23:16:09.973Z,100.00
2019-01-19T23:18:38.761Z,100.00
2019-01-19T23:21:07.541Z,100.00
2019-01-19T23:23:36.326Z,100.00
2019-01-19T23:26:05.114Z,100.00
2019-01-19T23:28:33.862Z,100.00
2019-01-19T23:31:02.603Z,100.00
2019-01-19T23:33:31.478Z,100.00
2019-01-19T23:36:00.226Z,100.00
2019-01-19T23:38:29.054Z,100.00
2019-01-19T23:40:57.848Z,100.00
2019-01-19T23:43:26.591Z,100.00
2019-01-19T23:45:55.419Z,100.00
2019-01-19T23:48:24.619Z,100.00
2019-01-19T23:50:53.509Z,100.00
2019-01-19T23:53:22.298Z,100.00
2019-01-19T23:55:51.510Z,100.00
2019-01-19T23:58:20.324Z,100.00
